createdAt,value
2023-08-18T00:00:49.222Z,19.70
2023-08-18T00:03:18.517Z,19.70
2023-08-18T00:05:45.300Z,19.70
2023-08-18T00:08:14.295Z,19.60
2023-08-18T00:10:41.042Z,19.60
2023-08-18T00:13:07.752Z,19.70
2023-08-18T00:15:34.656Z,19.70
2023-08-18T00:18:06.230Z,19.80
2023-08-18T00:20:35.263Z,19.80
2023-08-18T00:23:02.000Z,19.70
2023-08-18T00:25:28.725Z,19.70
2023-08-18T00:27:57.724Z,19.50
2023-08-18T00:30:26.639Z,19.50
2023-08-18T00:32:53.628Z,19.40
2023-08-18T00:35:22.838Z,19.40
2023-08-18T00:37:49.757Z,19.40
2023-08-18T00:40:17.509Z,19.30
2023-08-18T00:42:44.450Z,19.20
2023-08-18T00:45:11.519Z,19.30
2023-08-18T00:47:39.670Z,19.20
2023-08-18T00:50:11.001Z,19.40
2023-08-18T00:52:42.066Z,19.40
2023-08-18T00:55:12.619Z,19.30
2023-08-18T00:57:44.449Z,19.30
2023-08-18T01:00:11.786Z,19.40
2023-08-18T01:02:38.607Z,19.30
2023-08-18T01:05:05.651Z,19.10
2023-08-18T01:07:32.437Z,19.20
2023-08-18T01:09:59.190Z,19.20
2023-08-18T01:12:58.974Z,19.30
2023-08-18T01:15:31.418Z,19.10
2023-08-18T01:18:02.491Z,19.10
2023-08-18T01:20:29.611Z,19.10
2023-08-18T01:22:59.907Z,19.10
2023-08-18T01:25:27.560Z,19.10
2023-08-18T01:27:55.876Z,19.10
2023-08-18T01:30:28.876Z,19.10
2023-08-18T01:33:03.983Z,19.10
2023-08-18T01:35:31.099Z,19.10
2023-08-18T01:37:59.390Z,19.20
2023-08-18T01:40:30.261Z,19.10
2023-08-18T01:42:59.189Z,19.10
2023-08-18T01:45:26.210Z,19.00
2023-08-18T01:47:52.941Z,19.00
2023-08-18T01:50:19.736Z,19.00
2023-08-18T01:52:48.688Z,19.00
2023-08-18T01:55:15.495Z,18.90
2023-08-18T01:57:42.184Z,18.90
2023-08-18T02:02:49.070Z,18.60
2023-08-18T02:05:16.235Z,18.70
2023-08-18T02:07:45.224Z,18.80
2023-08-18T02:10:12.461Z,18.70
2023-08-18T02:12:41.558Z,18.70
2023-08-18T02:15:10.157Z,18.60
2023-08-18T02:17:36.868Z,18.70
2023-08-18T02:20:05.104Z,18.60
2023-08-18T02:22:31.930Z,18.60
2023-08-18T02:24:58.681Z,18.50
2023-08-18T02:27:25.413Z,18.60
2023-08-18T02:29:54.167Z,18.60
2023-08-18T02:32:23.311Z,18.50
2023-08-18T02:34:50.007Z,18.70
2023-08-18T02:37:16.792Z,18.70
2023-08-18T02:39:43.558Z,18.80
2023-08-18T02:42:12.886Z,18.70
2023-08-18T02:44:42.161Z,18.60
2023-08-18T02:47:11.108Z,18.60
2023-08-18T02:49:40.381Z,18.60
2023-08-18T02:52:07.125Z,18.70
2023-08-18T02:54:36.380Z,18.60
2023-08-18T02:57:03.123Z,18.60
2023-08-18T02:59:29.864Z,18.60
2023-08-18T03:04:23.814Z,18.40
2023-08-18T03:06:50.523Z,18.30
2023-08-18T03:09:19.614Z,18.40
2023-08-18T03:11:46.425Z,18.40
2023-08-18T03:14:15.727Z,18.50
2023-08-18T03:16:43.742Z,18.50
2023-08-18T03:19:12.710Z,18.50
2023-08-18T03:21:39.615Z,18.40
2023-08-18T03:24:06.556Z,18.30
2023-08-18T03:26:35.830Z,18.30
2023-08-18T03:29:05.136Z,18.40
2023-08-18T03:31:31.933Z,18.40
2023-08-18T03:34:01.107Z,18.30
2023-08-18T03:36:30.324Z,18.30
2023-08-18T03:38:57.037Z,18.40
2023-08-18T03:41:26.306Z,18.50
2023-08-18T03:43:52.999Z,18.40
2023-08-18T03:46:24.591Z,18.50
2023-08-18T03:48:51.373Z,18.40
2023-08-18T03:51:18.321Z,18.30
2023-08-18T03:53:45.036Z,18.40
2023-08-18T03:56:12.076Z,18.40
2023-08-18T03:58:38.919Z,18.40
2023-08-18T04:01:09.470Z,18.30
2023-08-18T04:03:39.368Z,18.40
2023-08-18T04:06:06.509Z,18.30
2023-08-18T04:08:44.045Z,18.40
2023-08-18T04:11:11.957Z,18.30
2023-08-18T04:13:41.500Z,18.40
2023-08-18T04:16:13.407Z,18.40
2023-08-18T04:18:40.152Z,18.50
2023-08-18T04:21:06.833Z,18.50
2023-08-18T04:23:35.779Z,18.70
2023-08-18T04:26:02.542Z,18.70
2023-08-18T04:28:30.874Z,18.80
2023-08-18T04:30:57.627Z,18.70
2023-08-18T04:33:24.351Z,18.60
2023-08-18T04:35:51.065Z,18.60
2023-08-18T04:38:18.770Z,18.60
2023-08-18T04:40:45.488Z,18.60
2023-08-18T04:43:12.176Z,18.50
2023-08-18T04:45:40.878Z,18.60
2023-08-18T04:48:07.941Z,18.50
2023-08-18T04:50:34.667Z,18.50
2023-08-18T04:53:01.346Z,18.60
2023-08-18T04:55:32.448Z,18.50
2023-08-18T04:57:59.354Z,18.60
2023-08-18T05:00:26.079Z,18.60
2023-08-18T05:02:53.106Z,18.50
2023-08-18T05:05:20.143Z,18.50
2023-08-18T05:07:46.851Z,18.70
2023-08-18T05:10:13.898Z,18.80
2023-08-18T05:12:41.644Z,18.80
2023-08-18T05:15:09.086Z,18.80
2023-08-18T05:17:35.821Z,18.80
2023-08-18T05:20:02.621Z,18.80
2023-08-18T05:22:33.915Z,18.80
2023-08-18T05:25:00.640Z,18.90
2023-08-18T05:27:29.812Z,18.90
2023-08-18T05:29:58.608Z,19.00
2023-08-18T05:32:28.055Z,18.90
2023-08-18T05:34:59.959Z,19.00
2023-08-18T05:37:26.679Z,19.10
2023-08-18T05:39:55.314Z,19.10
2023-08-18T05:42:26.815Z,19.10
2023-08-18T05:44:53.652Z,19.20
2023-08-18T05:47:20.397Z,19.20
2023-08-18T05:49:49.700Z,19.10
2023-08-18T05:52:16.527Z,19.20
2023-08-18T05:54:43.250Z,19.20
2023-08-18T05:57:09.953Z,19.30
2023-08-18T05:59:37.110Z,19.20
2023-08-18T06:02:06.628Z,19.20
2023-08-18T06:04:33.245Z,19.30
2023-08-18T06:07:02.163Z,19.30
2023-08-18T06:09:28.934Z,19.30
2023-08-18T06:11:55.678Z,19.30
2023-08-18T06:14:24.605Z,19.30
2023-08-18T06:16:51.356Z,19.40
2023-08-18T06:19:20.279Z,19.40
2023-08-18T06:21:46.963Z,19.30
2023-08-18T06:24:15.898Z,19.50
2023-08-18T06:26:44.813Z,19.40
2023-08-18T06:29:13.495Z,19.50
2023-08-18T06:31:40.288Z,19.60
2023-08-18T06:34:09.209Z,19.60
2023-08-18T06:36:38.385Z,19.70
2023-08-18T06:39:05.207Z,19.60
2023-08-18T06:41:32.040Z,19.60
2023-08-18T06:44:01.274Z,19.60
2023-08-18T06:46:30.527Z,19.70
2023-08-18T06:48:59.349Z,19.60
2023-08-18T06:51:26.088Z,19.60
2023-08-18T06:53:52.912Z,19.60
2023-08-18T06:56:19.613Z,19.70
2023-08-18T06:58:47.975Z,19.80
2023-08-18T07:01:14.850Z,19.80
2023-08-18T07:03:41.610Z,19.80
2023-08-18T07:06:10.562Z,19.90
2023-08-18T07:08:37.305Z,19.90
2023-08-18T07:11:04.142Z,19.90
2023-08-18T07:13:30.883Z,19.90
2023-08-18T07:15:58.425Z,19.90
2023-08-18T07:18:25.157Z,19.90
2023-08-18T07:20:54.145Z,20.00
2023-08-18T07:23:21.012Z,20.10
2023-08-18T07:25:47.858Z,20.20
2023-08-18T07:28:14.620Z,20.20
2023-08-18T07:30:43.584Z,20.40
2023-08-18T07:33:10.365Z,20.50
2023-08-18T07:35:37.217Z,20.60
2023-08-18T07:38:04.016Z,20.60
2023-08-18T07:40:31.321Z,20.50
2023-08-18T07:43:00.734Z,20.50
2023-08-18T07:45:30.352Z,20.50
2023-08-18T07:47:58.551Z,20.60
2023-08-18T07:50:25.316Z,20.60
2023-08-18T07:52:52.062Z,20.70
2023-08-18T07:55:22.228Z,20.80
2023-08-18T07:57:49.048Z,20.90
2023-08-18T08:00:18.732Z,21.00
2023-08-18T08:02:46.208Z,21.10
2023-08-18T08:05:22.713Z,21.00
2023-08-18T08:07:49.533Z,21.20
2023-08-18T08:10:16.500Z,21.30
2023-08-18T08:12:43.984Z,21.30
2023-08-18T08:15:14.255Z,21.40
2023-08-18T08:17:43.623Z,21.60
2023-08-18T08:20:17.684Z,21.70
2023-08-18T08:22:48.196Z,21.70
2023-08-18T08:25:20.292Z,21.80
2023-08-18T08:27:50.639Z,22.00
2023-08-18T08:30:34.846Z,22.00
2023-08-18T08:35:32.870Z,22.10
2023-08-18T08:37:59.649Z,22.30
2023-08-18T08:40:29.070Z,22.30
2023-08-18T08:45:28.994Z,22.30
2023-08-18T08:48:01.674Z,22.40
2023-08-18T08:53:03.047Z,22.50
2023-08-18T08:55:33.633Z,22.70
2023-08-18T08:58:01.411Z,22.90
2023-08-18T09:00:28.647Z,22.90
2023-08-18T09:03:02.228Z,22.90
2023-08-18T09:05:32.973Z,22.90
2023-08-18T09:08:02.318Z,22.80
2023-08-18T09:10:29.196Z,22.80
2023-08-18T09:12:58.706Z,22.70
2023-08-18T09:15:28.214Z,22.80
2023-08-18T09:17:55.649Z,22.70
2023-08-18T09:20:23.352Z,22.70
2023-08-18T09:22:57.702Z,22.80
2023-08-18T09:25:27.636Z,22.80
2023-08-18T09:27:54.934Z,23.00
2023-08-18T09:30:25.928Z,23.20
2023-08-18T09:35:23.007Z,23.20
2023-08-18T09:38:01.145Z,23.40
2023-08-18T09:40:29.946Z,23.50
2023-08-18T09:42:57.242Z,23.50
2023-08-18T09:45:27.262Z,23.60
2023-08-18T09:47:56.304Z,23.70
2023-08-18T09:50:30.368Z,23.90
2023-08-18T09:52:59.641Z,24.00
2023-08-18T09:55:29.943Z,24.00
2023-08-18T09:57:58.408Z,24.10
2023-08-18T10:00:28.269Z,24.00
2023-08-18T10:03:04.300Z,24.00
2023-08-18T10:05:32.256Z,24.20
2023-08-18T10:08:01.998Z,24.10
2023-08-18T10:10:29.058Z,24.10
2023-08-18T10:12:57.262Z,24.30
2023-08-18T10:15:31.810Z,24.30
2023-08-18T10:18:00.912Z,24.40
2023-08-18T14:24:12.259Z,32.40
2023-08-18T14:26:44.059Z,32.10
2023-08-18T14:29:16.461Z,31.90
2023-08-18T14:31:45.696Z,31.90
2023-08-18T14:34:12.639Z,31.70
2023-08-18T14:36:39.345Z,31.70
2023-08-18T14:39:06.512Z,31.90
2023-08-18T14:41:35.830Z,32.20
2023-08-18T14:44:06.951Z,32.20
2023-08-18T14:46:36.014Z,32.40
2023-08-18T14:49:05.189Z,32.50
2023-08-18T14:51:32.374Z,32.60
2023-08-18T14:53:59.115Z,32.60
2023-08-18T14:56:25.887Z,32.30
2023-08-18T14:58:55.091Z,32.10
2023-08-18T15:01:21.862Z,31.70
2023-08-18T15:03:49.304Z,31.60
2023-08-18T15:06:16.155Z,31.40
2023-08-18T15:08:42.924Z,31.30
2023-08-18T15:11:09.644Z,31.20
2023-08-18T15:13:36.434Z,31.20
2023-08-18T15:16:05.588Z,31.20
2023-08-18T15:18:32.329Z,31.20
2023-08-18T15:21:01.428Z,31.10
2023-08-18T15:23:28.116Z,31.10
2023-08-18T15:25:54.838Z,31.00
2023-08-18T15:28:23.958Z,31.00
2023-08-18T15:30:52.907Z,30.90
2023-08-18T15:33:19.612Z,30.90
2023-08-18T15:35:50.968Z,30.90
2023-08-18T15:38:17.689Z,30.90
2023-08-18T15:40:46.994Z,30.90
2023-08-18T15:43:13.828Z,30.80
2023-08-18T15:45:47.743Z,30.70
2023-08-18T15:48:15.340Z,30.60
2023-08-18T15:50:43.159Z,30.50
2023-08-18T15:53:10.214Z,30.50
2023-08-18T15:55:45.044Z,30.40
2023-08-18T15:58:17.185Z,30.40
2023-08-18T16:00:45.412Z,30.30
2023-08-18T16:03:12.787Z,30.10
2023-08-18T16:05:42.169Z,30.00
2023-08-18T16:08:12.764Z,29.80
2023-08-18T16:10:44.190Z,29.70
2023-08-18T16:13:14.152Z,29.60
2023-08-18T16:15:57.792Z,29.60
2023-08-18T16:18:27.318Z,29.50
2023-08-18T16:20:54.818Z,29.40
2023-08-18T16:23:24.829Z,29.30
2023-08-18T16:25:53.976Z,29.30
2023-08-18T16:28:20.848Z,29.20
2023-08-18T16:30:49.506Z,29.10
2023-08-18T16:33:16.543Z,29.10
2023-08-18T16:35:44.843Z,29.10
2023-08-18T16:38:12.958Z,29.00
2023-08-18T16:40:39.743Z,29.00
2023-08-18T16:43:09.000Z,29.00
2023-08-18T16:45:35.745Z,28.90
2023-08-18T16:48:02.573Z,28.90
2023-08-18T16:50:31.734Z,28.90
2023-08-18T16:53:00.932Z,28.90
2023-08-18T16:55:27.710Z,28.90
2023-08-18T16:57:56.573Z,28.80
2023-08-18T17:00:23.376Z,28.80
2023-08-18T17:02:52.361Z,28.80
2023-08-18T17:05:21.319Z,28.70
2023-08-18T17:07:53.410Z,28.70
2023-08-18T17:10:24.813Z,28.60
2023-08-18T17:12:51.531Z,28.60
2023-08-18T17:15:18.360Z,28.50
2023-08-18T17:17:45.297Z,28.40
2023-08-18T17:20:12.184Z,28.40
2023-08-18T17:22:38.921Z,28.30
2023-08-18T17:25:06.289Z,28.20
2023-08-18T17:27:33.048Z,28.20
2023-08-18T17:30:02.249Z,28.10
2023-08-18T17:32:29.023Z,28.10
2023-08-18T17:34:56.493Z,28.00
2023-08-18T17:37:23.357Z,28.00
2023-08-18T17:39:52.560Z,27.90
2023-08-18T17:42:19.275Z,27.80
2023-08-18T17:44:48.472Z,27.80
2023-08-18T17:47:15.412Z,27.70
2023-08-18T17:49:42.381Z,27.70
2023-08-18T17:52:09.095Z,27.60
2023-08-18T17:54:35.865Z,27.60
2023-08-18T17:57:02.563Z,27.50
2023-08-18T17:59:29.275Z,27.50
2023-08-18T18:01:58.180Z,27.40
2023-08-18T18:04:29.624Z,27.40
2023-08-18T18:06:58.863Z,27.40
2023-08-18T18:09:25.567Z,27.30
2023-08-18T18:11:52.359Z,27.30
2023-08-18T18:14:20.095Z,27.20
2023-08-18T18:16:46.926Z,27.20
2023-08-18T18:19:13.742Z,27.20
2023-08-18T18:21:40.498Z,27.10
2023-08-18T18:24:07.409Z,27.10
2023-08-18T18:26:34.177Z,27.00
2023-08-18T18:29:05.318Z,26.90
2023-08-18T18:31:34.616Z,26.90
2023-08-18T18:34:01.837Z,26.90
2023-08-18T18:36:28.617Z,26.80
2023-08-18T18:38:57.873Z,26.70
2023-08-18T18:41:24.650Z,26.60
2023-08-18T18:43:51.663Z,26.50
2023-08-18T18:46:18.504Z,26.50
2023-08-18T18:48:51.447Z,26.40
2023-08-18T18:51:20.517Z,26.30
2023-08-18T18:53:47.186Z,26.30
2023-08-18T18:56:13.913Z,26.20
2023-08-18T18:58:40.690Z,26.10
2023-08-18T19:01:07.636Z,26.00
2023-08-18T19:03:34.514Z,26.00
2023-08-18T19:06:01.443Z,26.00
2023-08-18T19:08:28.234Z,25.90
2023-08-18T19:11:02.607Z,25.80
2023-08-18T19:13:29.418Z,25.80
2023-08-18T19:15:56.692Z,25.80
2023-08-18T19:18:25.908Z,25.90
2023-08-18T19:20:54.706Z,25.90
2023-08-18T19:23:21.484Z,25.80
2023-08-18T19:25:48.400Z,25.80
2023-08-18T19:28:15.208Z,25.80
2023-08-18T19:30:47.026Z,25.80
2023-08-18T19:33:16.085Z,25.70
2023-08-18T19:35:44.982Z,25.70
2023-08-18T19:38:16.428Z,25.70
2023-08-18T19:40:43.282Z,25.60
2023-08-18T19:43:10.272Z,25.60
2023-08-18T19:45:36.948Z,25.60
2023-08-18T19:48:03.926Z,25.60
2023-08-18T19:50:30.794Z,25.50
2023-08-18T19:53:00.618Z,25.50
2023-08-18T19:55:27.494Z,25.40
2023-08-18T19:57:54.204Z,25.40
2023-08-18T20:00:23.081Z,25.40
2023-08-18T20:02:49.871Z,25.30
2023-08-18T20:05:17.803Z,25.30
2023-08-18T20:07:44.631Z,25.20
2023-08-18T20:10:14.072Z,25.20
2023-08-18T20:12:41.163Z,25.10
2023-08-18T20:15:08.482Z,25.10
2023-08-18T20:17:37.216Z,25.10
2023-08-18T20:20:06.738Z,25.00
2023-08-18T20:22:39.130Z,25.00
2023-08-18T20:25:07.315Z,24.90
2023-08-18T20:27:36.808Z,24.90
2023-08-18T20:30:05.320Z,24.90
2023-08-18T20:32:33.522Z,24.90
2023-08-18T20:35:03.886Z,24.80
2023-08-18T20:37:30.615Z,24.80
2023-08-18T20:39:57.394Z,24.70
2023-08-18T20:42:29.163Z,24.70
2023-08-18T20:44:56.002Z,24.70
2023-08-18T20:47:22.795Z,24.60
2023-08-18T20:49:49.642Z,24.60
2023-08-18T20:52:16.438Z,24.60
2023-08-18T20:54:45.350Z,24.50
2023-08-18T20:57:12.093Z,24.50
2023-08-18T20:59:38.903Z,24.50
2023-08-18T21:02:05.738Z,24.40
2023-08-18T21:04:34.915Z,24.40
2023-08-18T21:07:01.748Z,24.40
2023-08-18T21:09:30.776Z,24.40
2023-08-18T21:11:57.548Z,24.30
2023-08-18T21:14:25.004Z,24.30
2023-08-18T21:16:51.790Z,24.30
2023-08-18T21:19:18.582Z,24.30
2023-08-18T21:21:47.994Z,24.30
2023-08-18T21:24:14.824Z,24.20
2023-08-18T21:26:41.619Z,24.20
2023-08-18T21:29:10.706Z,24.20
2023-08-18T21:31:39.688Z,24.20
2023-08-18T21:34:06.465Z,24.10
2023-08-18T21:36:33.202Z,24.20
2023-08-18T21:39:06.239Z,24.00
2023-08-18T21:41:34.449Z,24.20
2023-08-18T21:44:02.693Z,24.10
2023-08-18T21:46:29.673Z,24.10
2023-08-18T21:48:56.401Z,24.20
2023-08-18T21:51:23.467Z,24.20
2023-08-18T21:53:50.243Z,24.20
2023-08-18T21:56:17.197Z,24.20
2023-08-18T21:58:43.937Z,24.20
2023-08-18T22:01:11.595Z,24.20
2023-08-18T22:03:41.637Z,24.20
2023-08-18T22:06:10.243Z,24.30
2023-08-18T22:08:37.044Z,24.20
2023-08-18T22:11:04.065Z,24.20
2023-08-18T22:13:30.819Z,24.20
2023-08-18T22:15:57.585Z,24.20
2023-08-18T22:18:24.363Z,24.20
2023-08-18T22:20:51.157Z,24.20
2023-08-18T22:23:17.920Z,24.20
2023-08-18T22:25:45.268Z,24.20
2023-08-18T22:28:13.623Z,24.20
2023-08-18T22:30:43.251Z,24.30
2023-08-18T22:33:12.265Z,24.20
2023-08-18T22:35:41.229Z,24.10
2023-08-18T22:38:08.021Z,24.10
2023-08-18T22:40:35.078Z,24.20
2023-08-18T22:43:01.810Z,24.10
2023-08-18T22:45:31.007Z,24.20
2023-08-18T22:48:00.070Z,24.20
2023-08-18T22:50:29.397Z,24.30
2023-08-18T22:52:56.009Z,24.10
2023-08-18T22:55:22.706Z,24.10
2023-08-18T22:57:49.427Z,24.20
2023-08-18T23:00:16.267Z,24.00
2023-08-18T23:02:43.015Z,24.10
2023-08-18T23:05:09.902Z,24.00
2023-08-18T23:07:37.192Z,24.10
2023-08-18T23:10:04.434Z,24.10
2023-08-18T23:12:35.292Z,24.10
2023-08-18T23:15:02.043Z,24.00
2023-08-18T23:17:28.782Z,24.10
2023-08-18T23:19:57.727Z,24.10
2023-08-18T23:22:26.122Z,24.00
2023-08-18T23:24:52.942Z,24.00
2023-08-18T23:27:19.731Z,23.80
2023-08-18T23:29:47.022Z,23.70
2023-08-18T23:32:13.786Z,23.70
2023-08-18T23:34:41.362Z,23.70
2023-08-18T23:37:09.268Z,23.80
2023-08-18T23:39:36.346Z,23.80
2023-08-18T23:42:05.612Z,23.70
2023-08-18T23:44:32.283Z,23.70
2023-08-18T23:47:01.366Z,23.50
2023-08-18T23:49:28.130Z,23.50
2023-08-18T23:51:54.958Z,23.30
2023-08-18T23:54:21.760Z,23.30
2023-08-18T23:56:48.476Z,23.30
2023-08-18T23:59:15.272Z,23.30
